sensor_id;sensor_type;location;lat;lon;timestamp;P1;durP1;ratioP1;P2;durP2;ratioP2
79751;SDS011;69234;47.446;21.636;2024-02-26T00:00:12;34.90;;;34.27;;
79751;SDS011;69234;47.446;21.636;2024-02-26T00:00:43;36.80;;;36.03;;
79751;SDS011;69234;47.446;21.636;2024-02-26T00:01:16;34.73;;;34.13;;
79751;SDS011;69234;47.446;21.636;2024-02-26T00:01:47;34.53;;;34.03;;
79751;SDS011;69234;47.446;21.636;2024-02-26T00:02:18;36.77;;;36.00;;
79751;SDS011;69234;47.446;21.636;2024-02-26T00:02:49;35.97;;;35.23;;
79751;SDS011;69234;47.446;21.636;2024-02-26T00:03:20;35.73;;;35.13;;
79751;SDS011;69234;47.446;21.636;2024-02-26T00:03:51;36.07;;;35.37;;
79751;SDS011;69234;47.446;21.636;2024-02-26T00:04:22;36.50;;;35.80;;
79751;SDS011;69234;47.446;21.636;2024-02-26T00:04:53;35.17;;;34.67;;
79751;SDS011;69234;47.446;21.636;2024-02-26T00:05:24;34.30;;;33.83;;
79751;SDS011;69234;47.446;21.636;2024-02-26T00:05:55;34.80;;;34.17;;
79751;SDS011;69234;47.446;21.636;2024-02-26T00:06:26;35.43;;;34.83;;
79751;SDS011;69234;47.446;21.636;2024-02-26T00:06:57;35.97;;;35.27;;
79751;SDS011;69234;47.446;21.636;2024-02-26T00:07:28;36.53;;;35.73;;
79751;SDS011;69234;47.446;21.636;2024-02-26T00:07:59;35.73;;;35.10;;
79751;SDS011;69234;47.446;21.636;2024-02-26T00:08:30;36.07;;;35.47;;
79751;SDS011;69234;47.446;21.636;2024-02-26T00:09:01;35.77;;;35.00;;
79751;SDS011;69234;47.446;21.636;2024-02-26T00:09:33;35.37;;;34.60;;
79751;SDS011;69234;47.446;21.636;2024-02-26T00:10:07;36.70;;;35.80;;
79751;SDS011;69234;47.446;21.636;2024-02-26T00:10:39;37.03;;;36.23;;
79751;SDS011;69234;47.446;21.636;2024-02-26T00:11:10;36.70;;;35.97;;
79751;SDS011;69234;47.446;21.636;2024-02-26T00:11:41;37.20;;;36.57;;
79751;SDS011;69234;47.446;21.636;2024-02-26T00:12:11;37.17;;;36.63;;
79751;SDS011;69234;47.446;21.636;2024-02-26T00:12:42;35.87;;;35.20;;
79751;SDS011;69234;47.446;21.636;2024-02-26T00:13:13;36.30;;;35.50;;
79751;SDS011;69234;47.446;21.636;2024-02-26T00:13:44;35.87;;;34.93;;
79751;SDS011;69234;47.446;21.636;2024-02-26T00:14:15;36.30;;;35.43;;
79751;SDS011;69234;47.446;21.636;2024-02-26T00:14:46;35.97;;;35.40;;
79751;SDS011;69234;47.446;21.636;2024-02-26T00:15:19;37.67;;;37.10;;
79751;SDS011;69234;47.446;21.636;2024-02-26T00:15:50;36.57;;;35.97;;
79751;SDS011;69234;47.446;21.636;2024-02-26T00:16:21;36.93;;;36.60;;
79751;SDS011;69234;47.446;21.636;2024-02-26T00:16:52;36.20;;;36.03;;
79751;SDS011;69234;47.446;21.636;2024-02-26T00:17:23;37.90;;;37.30;;
79751;SDS011;69234;47.446;21.636;2024-02-26T00:17:54;37.37;;;36.73;;
79751;SDS011;69234;47.446;21.636;2024-02-26T00:18:26;35.87;;;35.17;;
79751;SDS011;69234;47.446;21.636;2024-02-26T00:18:56;37.27;;;36.47;;
79751;SDS011;69234;47.446;21.636;2024-02-26T00:19:28;37.83;;;37.03;;
79751;SDS011;69234;47.446;21.636;2024-02-26T00:19:59;36.57;;;35.83;;
79751;SDS011;69234;47.446;21.636;2024-02-26T00:20:31;35.67;;;35.07;;
79751;SDS011;69234;47.446;21.636;2024-02-26T00:21:02;35.07;;;34.53;;
79751;SDS011;69234;47.446;21.636;2024-02-26T00:21:33;35.83;;;35.20;;
79751;SDS011;69234;47.446;21.636;2024-02-26T00:22:04;36.33;;;35.87;;
79751;SDS011;69234;47.446;21.636;2024-02-26T00:22:35;35.53;;;34.93;;
79751;SDS011;69234;47.446;21.636;2024-02-26T00:23:06;35.87;;;35.10;;
79751;SDS011;69234;47.446;21.636;2024-02-26T00:23:37;35.93;;;35.07;;
79751;SDS011;69234;47.446;21.636;2024-02-26T00:24:08;34.33;;;33.83;;
79751;SDS011;69234;47.446;21.636;2024-02-26T00:24:40;35.17;;;34.53;;
79751;SDS011;69234;47.446;21.636;2024-02-26T00:25:11;34.87;;;34.00;;
79751;SDS011;69234;47.446;21.636;2024-02-26T00:25:42;34.90;;;34.03;;
79751;SDS011;69234;47.446;21.636;2024-02-26T00:26:13;35.00;;;34.20;;
79751;SDS011;69234;47.446;21.636;2024-02-26T00:26:45;35.13;;;34.30;;
79751;SDS011;69234;47.446;21.636;2024-02-26T00:27:16;34.90;;;34.17;;
79751;SDS011;69234;47.446;21.636;2024-02-26T00:27:47;35.37;;;34.53;;
79751;SDS011;69234;47.446;21.636;2024-02-26T00:28:18;35.33;;;34.37;;
79751;SDS011;69234;47.446;21.636;2024-02-26T00:28:50;34.40;;;33.70;;
79751;SDS011;69234;47.446;21.636;2024-02-26T00:29:21;34.70;;;34.67;;
79751;SDS011;69234;47.446;21.636;2024-02-26T00:29:52;34.27;;;33.83;;
79751;SDS011;69234;47.446;21.636;2024-02-26T00:30:23;35.03;;;34.50;;
79751;SDS011;69234;47.446;21.636;2024-02-26T00:30:53;33.47;;;32.90;;
79751;SDS011;69234;47.446;21.636;2024-02-26T00:31:26;32.87;;;32.33;;
79751;SDS011;69234;47.446;21.636;2024-02-26T00:31:57;33.77;;;33.03;;
79751;SDS011;69234;47.446;21.636;2024-02-26T00:32:28;33.90;;;33.13;;
79751;SDS011;69234;47.446;21.636;2024-02-26T00:32:59;33.70;;;33.00;;
79751;SDS011;69234;47.446;21.636;2024-02-26T00:33:30;33.73;;;33.33;;
79751;SDS011;69234;47.446;21.636;2024-02-26T00:34:04;32.53;;;32.03;;
79751;SDS011;69234;47.446;21.636;2024-02-26T00:34:35;32.27;;;31.93;;
79751;SDS011;69234;47.446;21.636;2024-02-26T00:35:06;32.77;;;32.57;;
79751;SDS011;69234;47.446;21.636;2024-02-26T00:35:37;33.37;;;32.67;;
79751;SDS011;69234;47.446;21.636;2024-02-26T00:36:08;34.20;;;33.27;;
79751;SDS011;69234;47.446;21.636;2024-02-26T00:36:39;32.90;;;32.10;;
79751;SDS011;69234;47.446;21.636;2024-02-26T00:37:10;34.17;;;33.43;;
79751;SDS011;69234;47.446;21.636;2024-02-26T00:37:41;34.73;;;34.07;;
79751;SDS011;69234;47.446;21.636;2024-02-26T00:38:13;35.23;;;34.37;;
79751;SDS011;69234;47.446;21.636;2024-02-26T00:38:44;33.13;;;32.23;;
79751;SDS011;69234;47.446;21.636;2024-02-26T00:39:20;34.57;;;33.47;;
79751;SDS011;69234;47.446;21.636;2024-02-26T00:39:51;35.50;;;34.53;;
79751;SDS011;69234;47.446;21.636;2024-02-26T00:40:24;34.43;;;33.80;;
79751;SDS011;69234;47.446;21.636;2024-02-26T00:40:55;33.77;;;33.13;;
79751;SDS011;69234;47.446;21.636;2024-02-26T00:41:26;34.07;;;33.30;;
79751;SDS011;69234;47.446;21.636;2024-02-26T00:41:57;34.00;;;33.37;;
79751;SDS011;69234;47.446;21.636;2024-02-26T00:42:28;33.37;;;32.77;;
79751;SDS011;69234;47.446;21.636;2024-02-26T00:42:59;31.40;;;30.87;;
79751;SDS011;69234;47.446;21.636;2024-02-26T00:43:30;31.37;;;30.97;;
79751;SDS011;69234;47.446;21.636;2024-02-26T00:44:00;31.80;;;31.30;;
79751;SDS011;69234;47.446;21.636;2024-02-26T00:44:31;32.40;;;31.70;;
79751;SDS011;69234;47.446;21.636;2024-02-26T00:45:02;31.70;;;31.00;;
79751;SDS011;69234;47.446;21.636;2024-02-26T00:45:33;31.90;;;31.17;;
79751;SDS011;69234;47.446;21.636;2024-02-26T00:46:04;30.73;;;30.03;;
79751;SDS011;69234;47.446;21.636;2024-02-26T00:46:35;30.57;;;29.80;;
79751;SDS011;69234;47.446;21.636;2024-02-26T00:47:06;30.73;;;30.23;;
79751;SDS011;69234;47.446;21.636;2024-02-26T00:47:37;30.77;;;30.53;;
79751;SDS011;69234;47.446;21.636;2024-02-26T00:48:11;30.63;;;30.20;;
79751;SDS011;69234;47.446;21.636;2024-02-26T00:48:43;29.93;;;29.63;;
79751;SDS011;69234;47.446;21.636;2024-02-26T00:49:16;29.50;;;29.07;;
79751;SDS011;69234;47.446;21.636;2024-02-26T00:49:46;30.97;;;30.27;;
79751;SDS011;69234;47.446;21.636;2024-02-26T00:50:17;31.53;;;30.63;;
79751;SDS011;69234;47.446;21.636;2024-02-26T00:50:48;31.83;;;30.97;;
79751;SDS011;69234;47.446;21.636;2024-02-26T00:51:19;30.13;;;29.27;;
79751;SDS011;69234;47.446;21.636;2024-02-26T00:51:50;30.00;;;29.20;;
79751;SDS011;69234;47.446;21.636;2024-02-26T00:52:21;30.57;;;29.93;;
79751;SDS011;69234;47.446;21.636;2024-02-26T00:52:52;29.70;;;29.03;;
79751;SDS011;69234;47.446;21.636;2024-02-26T00:53:23;31.20;;;30.70;;
79751;SDS011;69234;47.446;21.636;2024-02-26T00:53:55;30.60;;;30.00;;
79751;SDS011;69234;47.446;21.636;2024-02-26T00:54:26;31.03;;;30.37;;
79751;SDS011;69234;47.446;21.636;2024-02-26T00:54:57;29.77;;;29.20;;
79751;SDS011;69234;47.446;21.636;2024-02-26T00:55:27;29.03;;;28.37;;
79751;SDS011;69234;47.446;21.636;2024-02-26T00:55:58;28.83;;;28.17;;
79751;SDS011;69234;47.446;21.636;2024-02-26T00:56:29;30.20;;;29.53;;
79751;SDS011;69234;47.446;21.636;2024-02-26T00:57:00;30.77;;;29.97;;
79751;SDS011;69234;47.446;21.636;2024-02-26T00:57:31;29.57;;;28.70;;
79751;SDS011;69234;47.446;21.636;2024-02-26T00:58:02;29.17;;;28.33;;
79751;SDS011;69234;47.446;21.636;2024-02-26T00:58:33;28.83;;;28.20;;
79751;SDS011;69234;47.446;21.636;2024-02-26T00:59:04;29.00;;;28.37;;
79751;SDS011;69234;47.446;21.636;2024-02-26T00:59:35;29.60;;;28.97;;
79751;SDS011;69234;47.446;21.636;2024-02-26T01:00:06;29.77;;;29.07;;
79751;SDS011;69234;47.446;21.636;2024-02-26T01:00:40;28.80;;;28.20;;
79751;SDS011;69234;47.446;21.636;2024-02-26T01:01:11;27.63;;;27.30;;
79751;SDS011;69234;47.446;21.636;2024-02-26T01:01:42;29.47;;;28.97;;
79751;SDS011;69234;47.446;21.636;2024-02-26T01:02:13;28.27;;;27.80;;
79751;SDS011;69234;47.446;21.636;2024-02-26T01:02:43;28.37;;;27.90;;
79751;SDS011;69234;47.446;21.636;2024-02-26T01:03:18;28.93;;;28.23;;
79751;SDS011;69234;47.446;21.636;2024-02-26T01:03:49;28.07;;;27.40;;
79751;SDS011;69234;47.446;21.636;2024-02-26T01:04:20;27.17;;;26.97;;
79751;SDS011;69234;47.446;21.636;2024-02-26T01:04:50;28.07;;;27.67;;
79751;SDS011;69234;47.446;21.636;2024-02-26T01:05:21;28.57;;;28.33;;
79751;SDS011;69234;47.446;21.636;2024-02-26T01:05:52;28.70;;;28.33;;
79751;SDS011;69234;47.446;21.636;2024-02-26T01:06:23;27.77;;;27.27;;
79751;SDS011;69234;47.446;21.636;2024-02-26T01:06:54;26.37;;;25.97;;
79751;SDS011;69234;47.446;21.636;2024-02-26T01:07:25;27.43;;;27.20;;
79751;SDS011;69234;47.446;21.636;2024-02-26T01:07:56;28.50;;;28.07;;
79751;SDS011;69234;47.446;21.636;2024-02-26T01:08:27;27.83;;;27.73;;
79751;SDS011;69234;47.446;21.636;2024-02-26T01:08:58;29.00;;;28.87;;
79751;SDS011;69234;47.446;21.636;2024-02-26T01:09:29;28.63;;;27.97;;
79751;SDS011;69234;47.446;21.636;2024-02-26T01:10:00;29.03;;;28.27;;
79751;SDS011;69234;47.446;21.636;2024-02-26T01:10:31;29.30;;;28.63;;
79751;SDS011;69234;47.446;21.636;2024-02-26T01:11:02;29.03;;;28.43;;
79751;SDS011;69234;47.446;21.636;2024-02-26T01:11:33;28.20;;;27.67;;
79751;SDS011;69234;47.446;21.636;2024-02-26T01:12:04;29.40;;;28.77;;
79751;SDS011;69234;47.446;21.636;2024-02-26T01:12:34;29.60;;;28.90;;
79751;SDS011;69234;47.446;21.636;2024-02-26T01:13:06;30.37;;;29.50;;
79751;SDS011;69234;47.446;21.636;2024-02-26T01:13:37;29.27;;;28.60;;
79751;SDS011;69234;47.446;21.636;2024-02-26T01:14:08;28.20;;;27.93;;
79751;SDS011;69234;47.446;21.636;2024-02-26T01:14:39;28.00;;;27.50;;
79751;SDS011;69234;47.446;21.636;2024-02-26T01:15:10;28.37;;;28.13;;
79751;SDS011;69234;47.446;21.636;2024-02-26T01:15:41;29.03;;;28.60;;
79751;SDS011;69234;47.446;21.636;2024-02-26T01:16:14;28.37;;;27.90;;
79751;SDS011;69234;47.446;21.636;2024-02-26T01:16:45;29.53;;;28.83;;
79751;SDS011;69234;47.446;21.636;2024-02-26T01:17:15;30.00;;;29.20;;
79751;SDS011;69234;47.446;21.636;2024-02-26T01:17:46;30.07;;;29.27;;
79751;SDS011;69234;47.446;21.636;2024-02-26T01:18:17;29.47;;;28.77;;
79751;SDS011;69234;47.446;21.636;2024-02-26T01:18:50;29.83;;;29.17;;
79751;SDS011;69234;47.446;21.636;2024-02-26T01:19:20;29.17;;;28.43;;
79751;SDS011;69234;47.446;21.636;2024-02-26T01:19:51;29.30;;;28.60;;
79751;SDS011;69234;47.446;21.636;2024-02-26T01:20:23;29.80;;;29.07;;
79751;SDS011;69234;47.446;21.636;2024-02-26T01:20:54;30.43;;;29.60;;
79751;SDS011;69234;47.446;21.636;2024-02-26T01:21:25;28.73;;;28.00;;
79751;SDS011;69234;47.446;21.636;2024-02-26T01:21:59;28.33;;;27.57;;
79751;SDS011;69234;47.446;21.636;2024-02-26T01:22:30;28.73;;;28.03;;
79751;SDS011;69234;47.446;21.636;2024-02-26T01:23:01;28.97;;;28.47;;
79751;SDS011;69234;47.446;21.636;2024-02-26T01:23:32;28.50;;;28.07;;
79751;SDS011;69234;47.446;21.636;2024-02-26T01:24:03;29.23;;;28.83;;
79751;SDS011;69234;47.446;21.636;2024-02-26T01:24:34;28.57;;;28.57;;
79751;SDS011;69234;47.446;21.636;2024-02-26T01:25:05;28.33;;;28.10;;
79751;SDS011;69234;47.446;21.636;2024-02-26T01:25:37;29.63;;;29.03;;
79751;SDS011;69234;47.446;21.636;2024-02-26T01:26:09;29.37;;;29.03;;
79751;SDS011;69234;47.446;21.636;2024-02-26T01:26:41;29.03;;;28.90;;
79751;SDS011;69234;47.446;21.636;2024-02-26T01:27:11;29.57;;;29.47;;
79751;SDS011;69234;47.446;21.636;2024-02-26T01:27:44;31.23;;;30.80;;
79751;SDS011;69234;47.446;21.636;2024-02-26T01:28:15;31.10;;;30.50;;
79751;SDS011;69234;47.446;21.636;2024-02-26T01:28:46;30.43;;;29.70;;
79751;SDS011;69234;47.446;21.636;2024-02-26T01:29:18;32.63;;;32.00;;
79751;SDS011;69234;47.446;21.636;2024-02-26T01:29:49;31.70;;;31.17;;
79751;SDS011;69234;47.446;21.636;2024-02-26T01:30:20;31.93;;;31.50;;
79751;SDS011;69234;47.446;21.636;2024-02-26T01:30:51;31.33;;;30.93;;
79751;SDS011;69234;47.446;21.636;2024-02-26T01:31:22;31.87;;;31.37;;
79751;SDS011;69234;47.446;21.636;2024-02-26T01:31:53;31.60;;;31.10;;
79751;SDS011;69234;47.446;21.636;2024-02-26T01:32:23;31.37;;;31.10;;
79751;SDS011;69234;47.446;21.636;2024-02-26T01:32:55;31.60;;;31.23;;
79751;SDS011;69234;47.446;21.636;2024-02-26T01:33:26;31.10;;;30.57;;
79751;SDS011;69234;47.446;21.636;2024-02-26T01:33:57;31.07;;;30.60;;
79751;SDS011;69234;47.446;21.636;2024-02-26T01:34:28;31.23;;;30.70;;
79751;SDS011;69234;47.446;21.636;2024-02-26T01:34:58;31.50;;;30.90;;
79751;SDS011;69234;47.446;21.636;2024-02-26T01:35:29;31.13;;;30.53;;
79751;SDS011;69234;47.446;21.636;2024-02-26T01:36:01;30.50;;;29.73;;
79751;SDS011;69234;47.446;21.636;2024-02-26T01:36:32;31.37;;;30.60;;
79751;SDS011;69234;47.446;21.636;2024-02-26T01:37:04;31.37;;;31.00;;
79751;SDS011;69234;47.446;21.636;2024-02-26T01:37:35;32.20;;;32.00;;
79751;SDS011;69234;47.446;21.636;2024-02-26T01:38:07;32.03;;;31.53;;
79751;SDS011;69234;47.446;21.636;2024-02-26T01:38:37;31.73;;;31.13;;
79751;SDS011;69234;47.446;21.636;2024-02-26T01:39:08;31.67;;;31.13;;
79751;SDS011;69234;47.446;21.636;2024-02-26T01:39:42;30.87;;;30.27;;
79751;SDS011;69234;47.446;21.636;2024-02-26T01:40:13;30.23;;;29.87;;
79751;SDS011;69234;47.446;21.636;2024-02-26T01:40:48;29.63;;;29.27;;
79751;SDS011;69234;47.446;21.636;2024-02-26T01:41:19;31.17;;;30.73;;
79751;SDS011;69234;47.446;21.636;2024-02-26T01:41:50;31.10;;;30.57;;
79751;SDS011;69234;47.446;21.636;2024-02-26T01:42:20;31.87;;;31.40;;
79751;SDS011;69234;47.446;21.636;2024-02-26T01:42:52;32.83;;;32.47;;
79751;SDS011;69234;47.446;21.636;2024-02-26T01:43:23;32.10;;;31.70;;
79751;SDS011;69234;47.446;21.636;2024-02-26T01:43:54;30.27;;;29.60;;
79751;SDS011;69234;47.446;21.636;2024-02-26T01:44:26;30.80;;;30.13;;
79751;SDS011;69234;47.446;21.636;2024-02-26T01:44:57;30.60;;;30.13;;
79751;SDS011;69234;47.446;21.636;2024-02-26T01:45:29;29.60;;;29.23;;
79751;SDS011;69234;47.446;21.636;2024-02-26T01:46:00;30.80;;;30.33;;
79751;SDS011;69234;47.446;21.636;2024-02-26T01:46:31;31.20;;;30.67;;
79751;SDS011;69234;47.446;21.636;2024-02-26T01:47:05;30.83;;;30.23;;
79751;SDS011;69234;47.446;21.636;2024-02-26T01:47:40;30.53;;;29.97;;
79751;SDS011;69234;47.446;21.636;2024-02-26T01:48:12;29.80;;;29.03;;
79751;SDS011;69234;47.446;21.636;2024-02-26T01:48:44;29.97;;;29.17;;
79751;SDS011;69234;47.446;21.636;2024-02-26T01:49:17;30.93;;;30.20;;
79751;SDS011;69234;47.446;21.636;2024-02-26T01:49:49;30.30;;;29.63;;
79751;SDS011;69234;47.446;21.636;2024-02-26T01:50:20;29.73;;;29.07;;
79751;SDS011;69234;47.446;21.636;2024-02-26T01:50:54;30.47;;;29.83;;
79751;SDS011;69234;47.446;21.636;2024-02-26T01:51:25;30.17;;;29.63;;
79751;SDS011;69234;47.446;21.636;2024-02-26T01:51:56;31.50;;;30.87;;
79751;SDS011;69234;47.446;21.636;2024-02-26T01:52:28;29.37;;;29.33;;
79751;SDS011;69234;47.446;21.636;2024-02-26T01:53:00;30.03;;;29.83;;
79751;SDS011;69234;47.446;21.636;2024-02-26T01:53:31;31.43;;;30.67;;
79751;SDS011;69234;47.446;21.636;2024-02-26T01:54:02;30.27;;;29.47;;
79751;SDS011;69234;47.446;21.636;2024-02-26T01:54:34;31.73;;;30.83;;
79751;SDS011;69234;47.446;21.636;2024-02-26T01:55:08;30.30;;;29.60;;
79751;SDS011;69234;47.446;21.636;2024-02-26T01:55:39;29.30;;;29.00;;
79751;SDS011;69234;47.446;21.636;2024-02-26T01:56:11;30.50;;;30.23;;
79751;SDS011;69234;47.446;21.636;2024-02-26T01:56:45;30.00;;;29.63;;
79751;SDS011;69234;47.446;21.636;2024-02-26T01:57:16;29.93;;;29.50;;
79751;SDS011;69234;47.446;21.636;2024-02-26T01:57:48;30.20;;;29.70;;
79751;SDS011;69234;47.446;21.636;2024-02-26T01:58:21;29.17;;;28.60;;
79751;SDS011;69234;47.446;21.636;2024-02-26T01:58:54;29.90;;;29.53;;
79751;SDS011;69234;47.446;21.636;2024-02-26T01:59:25;32.23;;;31.70;;
79751;SDS011;69234;47.446;21.636;2024-02-26T01:59:56;32.70;;;32.10;;
79751;SDS011;69234;47.446;21.636;2024-02-26T02:00:27;31.40;;;30.90;;
79751;SDS011;69234;47.446;21.636;2024-02-26T02:00:58;30.30;;;29.67;;
79751;SDS011;69234;47.446;21.636;2024-02-26T02:01:31;31.77;;;31.00;;
79751;SDS011;69234;47.446;21.636;2024-02-26T02:02:05;30.33;;;29.67;;
79751;SDS011;69234;47.446;21.636;2024-02-26T02:02:40;30.80;;;30.13;;
79751;SDS011;69234;47.446;21.636;2024-02-26T02:03:12;30.67;;;29.90;;
79751;SDS011;69234;47.446;21.636;2024-02-26T02:03:43;31.07;;;30.43;;
79751;SDS011;69234;47.446;21.636;2024-02-26T02:04:15;31.23;;;30.63;;
79751;SDS011;69234;47.446;21.636;2024-02-26T02:04:46;30.60;;;30.00;;
79751;SDS011;69234;47.446;21.636;2024-02-26T02:05:17;30.70;;;30.03;;
79751;SDS011;69234;47.446;21.636;2024-02-26T02:05:51;31.00;;;30.40;;
79751;SDS011;69234;47.446;21.636;2024-02-26T02:06:22;29.77;;;29.50;;
79751;SDS011;69234;47.446;21.636;2024-02-26T02:06:53;30.27;;;29.80;;
79751;SDS011;69234;47.446;21.636;2024-02-26T02:07:25;29.70;;;29.57;;
79751;SDS011;69234;47.446;21.636;2024-02-26T02:07:57;31.43;;;31.00;;
79751;SDS011;69234;47.446;21.636;2024-02-26T02:08:29;29.53;;;29.27;;
79751;SDS011;69234;47.446;21.636;2024-02-26T02:09:00;29.67;;;29.20;;
79751;SDS011;69234;47.446;21.636;2024-02-26T02:09:36;30.10;;;29.47;;
79751;SDS011;69234;47.446;21.636;2024-02-26T02:10:07;29.43;;;28.83;;
79751;SDS011;69234;47.446;21.636;2024-02-26T02:10:40;30.13;;;29.43;;
79751;SDS011;69234;47.446;21.636;2024-02-26T02:11:12;30.67;;;30.00;;
79751;SDS011;69234;47.446;21.636;2024-02-26T02:11:45;30.43;;;29.77;;
79751;SDS011;69234;47.446;21.636;2024-02-26T02:12:18;30.13;;;29.77;;
79751;SDS011;69234;47.446;21.636;2024-02-26T02:12:49;29.60;;;29.40;;
79751;SDS011;69234;47.446;21.636;2024-02-26T02:13:20;28.80;;;28.40;;
79751;SDS011;69234;47.446;21.636;2024-02-26T02:13:51;30.47;;;29.83;;
79751;SDS011;69234;47.446;21.636;2024-02-26T02:14:22;31.57;;;31.27;;
79751;SDS011;69234;47.446;21.636;2024-02-26T02:14:54;30.83;;;30.57;;
79751;SDS011;69234;47.446;21.636;2024-02-26T02:15:25;29.77;;;29.30;;
79751;SDS011;69234;47.446;21.636;2024-02-26T02:15:56;29.93;;;29.33;;
79751;SDS011;69234;47.446;21.636;2024-02-26T02:16:27;31.30;;;30.43;;
79751;SDS011;69234;47.446;21.636;2024-02-26T02:16:58;30.87;;;29.97;;
79751;SDS011;69234;47.446;21.636;2024-02-26T02:17:30;31.47;;;30.53;;
79751;SDS011;69234;47.446;21.636;2024-02-26T02:18:02;32.63;;;31.80;;
79751;SDS011;69234;47.446;21.636;2024-02-26T02:18:33;31.53;;;30.73;;
79751;SDS011;69234;47.446;21.636;2024-02-26T02:19:04;30.50;;;29.87;;
79751;SDS011;69234;47.446;21.636;2024-02-26T02:19:35;29.87;;;29.03;;
79751;SDS011;69234;47.446;21.636;2024-02-26T02:20:48;31.67;;;30.30;;
79751;SDS011;69234;47.446;21.636;2024-02-26T02:21:04;30.77;;;30.00;;
79751;SDS011;69234;47.446;21.636;2024-02-26T02:21:35;30.47;;;29.80;;
79751;SDS011;69234;47.446;21.636;2024-02-26T02:22:05;31.50;;;30.80;;
79751;SDS011;69234;47.446;21.636;2024-02-26T02:22:36;31.70;;;31.10;;
79751;SDS011;69234;47.446;21.636;2024-02-26T02:23:08;31.03;;;30.20;;
79751;SDS011;69234;47.446;21.636;2024-02-26T02:23:39;32.30;;;31.27;;
79751;SDS011;69234;47.446;21.636;2024-02-26T02:24:12;32.73;;;31.70;;
79751;SDS011;69234;47.446;21.636;2024-02-26T02:24:47;31.63;;;30.80;;
79751;SDS011;69234;47.446;21.636;2024-02-26T02:25:19;32.17;;;31.50;;
79751;SDS011;69234;47.446;21.636;2024-02-26T02:25:50;32.40;;;31.63;;
79751;SDS011;69234;47.446;21.636;2024-02-26T02:26:22;33.27;;;32.30;;
79751;SDS011;69234;47.446;21.636;2024-02-26T02:26:53;31.77;;;31.00;;
79751;SDS011;69234;47.446;21.636;2024-02-26T02:27:25;31.97;;;31.30;;
79751;SDS011;69234;47.446;21.636;2024-02-26T02:27:58;33.20;;;32.47;;
79751;SDS011;69234;47.446;21.636;2024-02-26T02:28:29;32.87;;;32.17;;
79751;SDS011;69234;47.446;21.636;2024-02-26T02:29:01;31.70;;;31.10;;
79751;SDS011;69234;47.446;21.636;2024-02-26T02:29:33;32.30;;;31.67;;
79751;SDS011;69234;47.446;21.636;2024-02-26T02:30:04;32.00;;;31.37;;
79751;SDS011;69234;47.446;21.636;2024-02-26T02:30:38;31.47;;;31.23;;
79751;SDS011;69234;47.446;21.636;2024-02-26T02:31:10;33.10;;;32.43;;
79751;SDS011;69234;47.446;21.636;2024-02-26T02:31:41;33.67;;;33.00;;
79751;SDS011;69234;47.446;21.636;2024-02-26T02:32:13;32.87;;;32.30;;
79751;SDS011;69234;47.446;21.636;2024-02-26T02:32:46;32.77;;;32.10;;
79751;SDS011;69234;47.446;21.636;2024-02-26T02:33:17;33.63;;;32.90;;
79751;SDS011;69234;47.446;21.636;2024-02-26T02:33:48;32.60;;;32.30;;
79751;SDS011;69234;47.446;21.636;2024-02-26T02:34:19;32.47;;;32.30;;
79751;SDS011;69234;47.446;21.636;2024-02-26T02:34:52;32.77;;;32.27;;
79751;SDS011;69234;47.446;21.636;2024-02-26T02:35:23;32.53;;;31.80;;
79751;SDS011;69234;47.446;21.636;2024-02-26T02:35:54;32.33;;;31.73;;
79751;SDS011;69234;47.446;21.636;2024-02-26T02:36:25;31.90;;;31.33;;
79751;SDS011;69234;47.446;21.636;2024-02-26T02:36:56;31.70;;;31.13;;
79751;SDS011;69234;47.446;21.636;2024-02-26T02:37:27;31.17;;;30.60;;
79751;SDS011;69234;47.446;21.636;2024-02-26T02:37:58;32.37;;;31.63;;
79751;SDS011;69234;47.446;21.636;2024-02-26T02:38:29;33.37;;;32.47;;
79751;SDS011;69234;47.446;21.636;2024-02-26T02:39:00;33.10;;;32.30;;
79751;SDS011;69234;47.446;21.636;2024-02-26T02:39:31;33.27;;;32.33;;
79751;SDS011;69234;47.446;21.636;2024-02-26T02:40:02;33.00;;;32.33;;
79751;SDS011;69234;47.446;21.636;2024-02-26T02:40:34;31.83;;;31.63;;
79751;SDS011;69234;47.446;21.636;2024-02-26T02:41:05;31.53;;;31.17;;
79751;SDS011;69234;47.446;21.636;2024-02-26T02:41:36;31.17;;;30.67;;
79751;SDS011;69234;47.446;21.636;2024-02-26T02:42:07;32.50;;;31.80;;
79751;SDS011;69234;47.446;21.636;2024-02-26T02:42:39;33.10;;;32.27;;
79751;SDS011;69234;47.446;21.636;2024-02-26T02:43:10;32.87;;;32.10;;
79751;SDS011;69234;47.446;21.636;2024-02-26T02:43:41;32.70;;;31.87;;
79751;SDS011;69234;47.446;21.636;2024-02-26T02:44:12;32.20;;;31.43;;
79751;SDS011;69234;47.446;21.636;2024-02-26T02:44:43;31.17;;;30.47;;
79751;SDS011;69234;47.446;21.636;2024-02-26T02:45:15;31.63;;;30.97;;
79751;SDS011;69234;47.446;21.636;2024-02-26T02:45:46;32.07;;;31.37;;
79751;SDS011;69234;47.446;21.636;2024-02-26T02:46:16;31.27;;;30.57;;
79751;SDS011;69234;47.446;21.636;2024-02-26T02:46:47;31.57;;;30.93;;
79751;SDS011;69234;47.446;21.636;2024-02-26T02:47:18;33.60;;;32.77;;
79751;SDS011;69234;47.446;21.636;2024-02-26T02:47:49;31.97;;;31.20;;
79751;SDS011;69234;47.446;21.636;2024-02-26T02:48:20;31.50;;;30.73;;
79751;SDS011;69234;47.446;21.636;2024-02-26T02:48:51;31.83;;;31.03;;
79751;SDS011;69234;47.446;21.636;2024-02-26T02:49:22;32.20;;;31.33;;
79751;SDS011;69234;47.446;21.636;2024-02-26T02:49:53;31.77;;;31.17;;
79751;SDS011;69234;47.446;21.636;2024-02-26T02:50:25;31.17;;;30.67;;
79751;SDS011;69234;47.446;21.636;2024-02-26T02:50:55;31.87;;;31.03;;
79751;SDS011;69234;47.446;21.636;2024-02-26T02:51:27;32.90;;;31.90;;
79751;SDS011;69234;47.446;21.636;2024-02-26T02:51:58;32.87;;;31.93;;
79751;SDS011;69234;47.446;21.636;2024-02-26T02:52:28;31.80;;;31.03;;
79751;SDS011;69234;47.446;21.636;2024-02-26T02:52:59;30.53;;;29.87;;
79751;SDS011;69234;47.446;21.636;2024-02-26T02:53:31;30.30;;;29.60;;
79751;SDS011;69234;47.446;21.636;2024-02-26T02:54:02;31.50;;;30.90;;
79751;SDS011;69234;47.446;21.636;2024-02-26T02:54:33;32.60;;;31.90;;
79751;SDS011;69234;47.446;21.636;2024-02-26T02:55:04;30.93;;;30.20;;
79751;SDS011;69234;47.446;21.636;2024-02-26T02:55:35;30.77;;;29.80;;
79751;SDS011;69234;47.446;21.636;2024-02-26T02:56:06;30.83;;;29.77;;
79751;SDS011;69234;47.446;21.636;2024-02-26T02:56:37;29.93;;;29.03;;
79751;SDS011;69234;47.446;21.636;2024-02-26T02:57:08;31.43;;;30.60;;
79751;SDS011;69234;47.446;21.636;2024-02-26T02:57:39;31.30;;;30.40;;
79751;SDS011;69234;47.446;21.636;2024-02-26T02:58:11;30.13;;;29.23;;
79751;SDS011;69234;47.446;21.636;2024-02-26T02:58:42;30.33;;;29.63;;
79751;SDS011;69234;47.446;21.636;2024-02-26T02:59:13;30.13;;;29.50;;
79751;SDS011;69234;47.446;21.636;2024-02-26T02:59:44;30.17;;;29.40;;
79751;SDS011;69234;47.446;21.636;2024-02-26T03:00:15;30.40;;;29.97;;
79751;SDS011;69234;47.446;21.636;2024-02-26T03:00:46;29.83;;;29.67;;
79751;SDS011;69234;47.446;21.636;2024-02-26T03:01:17;29.23;;;28.97;;